Terminal Aerodrome Forecast
Issued by NWS

Home | Current Version | Previous Version | Text Only | Print | Product List | Glossary On
Versions: 1 2 3 4 5 6 7 8 9 10 11 12 13 14 15 16 17 18 19 20 21 22 23 24 25 26 27 28
000
FTUS45 KBOI 210520
TAFTWF
TAF
KTWF 210520Z 2106/2206 16008KT P6SM SKC
     FM211700 09009KT P6SM VCSH SCT100 OVC200
      TEMPO 2119/2122 -SHRA BKN090
     FM212200 10009KT P6SM -SHRA SCT050 OVC090=

USA.gov is the U.S. government's official web portal to all federal, state and local government web resources and services.